createdAt,value
2017-09-07T00:00:40.582Z,0
2017-09-07T00:01:49.431Z,0
2017-09-07T00:02:58.268Z,0
2017-09-07T00:04:07.109Z,0
2017-09-07T00:05:15.951Z,0
2017-09-07T00:06:24.944Z,0
2017-09-07T00:07:33.785Z,0
2017-09-07T00:08:42.627Z,0
2017-09-07T00:09:51.468Z,0
2017-09-07T00:11:00.310Z,0
2017-09-07T00:12:09.303Z,0
2017-09-07T00:13:18.147Z,0
2017-09-07T00:14:26.990Z,0
2017-09-07T00:15:35.830Z,0
2017-09-07T00:16:44.674Z,0
2017-09-07T00:17:53.719Z,0
2017-09-07T00:19:02.564Z,0
2017-09-07T00:20:11.409Z,0
2017-09-07T00:21:20.250Z,0
2017-09-07T00:22:29.095Z,0
2017-09-07T00:23:37.989Z,0
2017-09-07T00:24:46.834Z,0
2017-09-07T00:25:55.681Z,0
2017-09-07T00:27:04.524Z,0
2017-09-07T00:28:13.368Z,0
2017-09-07T00:29:22.516Z,0
2017-09-07T00:30:31.359Z,0
2017-09-07T00:31:40.205Z,0
2017-09-07T00:32:49.049Z,0
2017-09-07T00:33:57.893Z,0
2017-09-07T00:35:06.937Z,0
2017-09-07T00:36:15.781Z,0
2017-09-07T00:37:24.957Z,0
2017-09-07T00:38:33.801Z,0
2017-09-07T00:39:42.652Z,0
2017-09-07T00:40:51.639Z,0
2017-09-07T00:42:00.485Z,0
2017-09-07T00:43:09.328Z,0
2017-09-07T00:44:18.173Z,0
2017-09-07T00:45:27.015Z,0
2017-09-07T00:46:36.012Z,0
2017-09-07T00:47:44.857Z,0
2017-09-07T00:48:53.701Z,0
2017-09-07T00:50:02.544Z,0
2017-09-07T00:51:11.391Z,0
2017-09-07T00:52:20.535Z,0
2017-09-07T00:53:29.379Z,0
2017-09-07T00:54:38.225Z,0
2017-09-07T00:55:47.069Z,0
2017-09-07T00:56:55.911Z,0
2017-09-07T00:58:05.057Z,0
2017-09-07T00:59:14.230Z,0
2017-09-07T01:00:23.072Z,0
2017-09-07T01:01:31.915Z,0
2017-09-07T01:02:40.758Z,0
2017-09-07T01:03:49.855Z,0
2017-09-07T01:04:58.694Z,0
2017-09-07T01:06:07.539Z,0
2017-09-07T01:07:16.380Z,0
2017-09-07T01:08:25.223Z,0
2017-09-07T01:09:34.216Z,0
2017-09-07T01:10:43.058Z,0
2017-09-07T01:11:51.900Z,0
2017-09-07T01:13:00.741Z,0
2017-09-07T01:14:10.250Z,0
2017-09-07T01:15:19.191Z,0
2017-09-07T01:16:28.032Z,0
2017-09-07T01:17:36.875Z,0
2017-09-07T01:18:45.717Z,0
2017-09-07T01:19:54.559Z,0
2017-09-07T01:21:03.602Z,0
2017-09-07T01:22:12.447Z,0
2017-09-07T01:23:21.288Z,0
2017-09-07T01:24:30.131Z,0
2017-09-07T01:25:39.303Z,0
2017-09-07T01:26:48.196Z,0
2017-09-07T01:27:57.039Z,0
2017-09-07T01:29:05.881Z,0
2017-09-07T01:30:14.721Z,0
2017-09-07T01:31:23.563Z,0
2017-09-07T01:32:32.555Z,0
2017-09-07T01:33:41.397Z,0
2017-09-07T01:34:50.240Z,0
2017-09-07T01:35:59.079Z,0
2017-09-07T01:37:07.923Z,0
2017-09-07T01:38:16.918Z,0
2017-09-07T01:39:26.087Z,0
2017-09-07T01:40:34.930Z,0
2017-09-07T01:41:43.773Z,0
2017-09-07T01:42:52.616Z,0
2017-09-07T01:44:01.456Z,0
2017-09-07T01:45:10.297Z,0
2017-09-07T01:46:19.141Z,0
2017-09-07T01:47:27.980Z,0
2017-09-07T01:48:36.822Z,0
2017-09-07T01:49:46.146Z,0
2017-09-07T01:50:54.989Z,0
2017-09-07T01:52:03.831Z,0
2017-09-07T01:53:12.680Z,0
2017-09-07T01:54:21.518Z,0
2017-09-07T01:55:30.460Z,0
2017-09-07T01:56:39.303Z,0
2017-09-07T01:57:48.147Z,0
2017-09-07T01:58:56.989Z,0
2017-09-07T02:00:05.828Z,0
2017-09-07T02:01:14.720Z,0
2017-09-07T02:02:23.563Z,0
2017-09-07T02:03:32.404Z,0
2017-09-07T02:04:41.247Z,0
2017-09-07T02:05:50.088Z,0
2017-09-07T02:06:59.314Z,0
2017-09-07T02:08:08.157Z,0
2017-09-07T02:09:17.000Z,0
2017-09-07T02:10:25.842Z,0
2017-09-07T02:11:34.683Z,0
2017-09-07T02:12:43.673Z,0
2017-09-07T02:13:52.516Z,0
2017-09-07T02:15:01.359Z,0
2017-09-07T02:16:10.201Z,0
2017-09-07T02:17:19.043Z,0
2017-09-07T02:18:27.988Z,0
2017-09-07T02:19:36.880Z,0
2017-09-07T02:20:46.061Z,0
2017-09-07T02:21:55.242Z,0
2017-09-07T02:23:04.085Z,0
2017-09-07T02:24:13.176Z,0
2017-09-07T02:25:22.018Z,0
2017-09-07T02:26:30.862Z,0
2017-09-07T02:27:39.707Z,0
2017-09-07T02:28:48.549Z,0
2017-09-07T02:29:57.442Z,0
2017-09-07T02:31:06.284Z,0
2017-09-07T02:32:15.125Z,0
2017-09-07T02:33:23.974Z,0
2017-09-07T02:34:33.150Z,0
2017-09-07T02:35:42.292Z,0
2017-09-07T02:36:51.132Z,0
2017-09-07T02:37:59.979Z,0
2017-09-07T02:39:08.816Z,0
2017-09-07T02:40:17.658Z,0
2017-09-07T02:41:26.600Z,0
2017-09-07T02:42:35.443Z,0
2017-09-07T02:43:44.283Z,0
2017-09-07T02:44:53.127Z,0
2017-09-07T02:46:01.968Z,0
2017-09-07T02:47:10.963Z,0
2017-09-07T02:48:19.808Z,0
2017-09-07T02:49:28.652Z,0
2017-09-07T02:50:37.496Z,0
2017-09-07T02:51:46.340Z,0
2017-09-07T02:52:55.188Z,0
2017-09-07T02:54:04.366Z,0
2017-09-07T02:55:13.210Z,0
2017-09-07T02:56:22.054Z,0
2017-09-07T02:57:30.897Z,0
2017-09-07T02:58:39.842Z,0
2017-09-07T02:59:48.683Z,0
2017-09-07T03:00:57.528Z,0
2017-09-07T03:02:06.371Z,0
2017-09-07T03:03:15.214Z,0
2017-09-07T03:04:24.061Z,0
2017-09-07T03:05:32.904Z,0
2017-09-07T03:06:41.750Z,0
2017-09-07T03:07:50.597Z,0
2017-09-07T03:08:59.773Z,0
2017-09-07T03:10:08.920Z,0
2017-09-07T03:11:17.762Z,0
2017-09-07T03:12:26.607Z,0
2017-09-07T03:13:35.454Z,0
2017-09-07T03:14:44.301Z,0
2017-09-07T03:15:53.396Z,0
2017-09-07T03:17:02.239Z,0
2017-09-07T03:18:11.412Z,0
2017-09-07T03:19:20.257Z,0
2017-09-07T03:20:29.102Z,0
2017-09-07T03:21:38.099Z,0
2017-09-07T03:22:46.942Z,0
2017-09-07T03:23:55.787Z,0
2017-09-07T03:25:04.629Z,0
2017-09-07T03:26:13.473Z,0
2017-09-07T03:27:22.614Z,0
2017-09-07T03:28:31.457Z,0
2017-09-07T03:29:40.302Z,0
2017-09-07T03:30:49.152Z,0
2017-09-07T03:31:58.000Z,0
2017-09-07T03:33:06.893Z,0
2017-09-07T03:34:15.738Z,0
2017-09-07T03:35:24.916Z,0
2017-09-07T03:36:33.760Z,0
2017-09-07T03:37:42.607Z,0
2017-09-07T03:38:51.758Z,0
2017-09-07T03:40:00.599Z,0
2017-09-07T03:41:09.442Z,0
2017-09-07T03:42:18.285Z,0
2017-09-07T03:43:27.131Z,0
2017-09-07T03:44:36.127Z,0
2017-09-07T03:45:45.304Z,0
2017-09-07T03:46:54.147Z,0
2017-09-07T03:48:02.993Z,0
2017-09-07T03:49:11.838Z,0
2017-09-07T03:50:20.835Z,0
2017-09-07T03:51:29.675Z,0
2017-09-07T03:52:38.518Z,0
2017-09-07T03:53:47.364Z,0
2017-09-07T03:54:56.209Z,0
2017-09-07T03:56:05.102Z,0
2017-09-07T03:57:13.945Z,0
2017-09-07T03:58:22.789Z,0
2017-09-07T03:59:31.637Z,0
2017-09-07T04:00:40.483Z,0
2017-09-07T04:01:49.577Z,0
2017-09-07T04:02:58.422Z,0
2017-09-07T04:04:07.268Z,0
2017-09-07T04:05:16.112Z,0
2017-09-07T04:06:25.286Z,0
2017-09-07T04:07:34.130Z,0
2017-09-07T04:08:42.973Z,0
2017-09-07T04:09:51.820Z,0
2017-09-07T04:11:00.663Z,0
2017-09-07T04:12:09.505Z,0
2017-09-07T04:13:18.549Z,0
2017-09-07T04:14:27.393Z,0
2017-09-07T04:15:36.238Z,0
2017-09-07T04:16:45.410Z,0
2017-09-07T04:17:54.253Z,0
2017-09-07T04:19:03.146Z,0
2017-09-07T04:20:11.988Z,0
2017-09-07T04:21:20.833Z,4
2017-09-07T04:22:29.683Z,4
2017-09-07T04:23:38.528Z,4
2017-09-07T04:24:47.520Z,4
2017-09-07T04:25:56.366Z,4
2017-09-07T04:27:05.208Z,8
2017-09-07T04:28:14.052Z,8
2017-09-07T04:29:22.902Z,12
2017-09-07T04:30:31.891Z,12
2017-09-07T04:31:40.736Z,12
2017-09-07T04:32:49.597Z,12
2017-09-07T04:33:58.443Z,12
2017-09-07T04:35:07.291Z,16
2017-09-07T04:36:16.186Z,20
2017-09-07T04:37:25.032Z,24
2017-09-07T04:38:33.877Z,28
2017-09-07T04:39:42.724Z,32
2017-09-07T04:40:51.568Z,36
2017-09-07T04:42:00.562Z,40
2017-09-07T04:43:09.406Z,48
2017-09-07T04:44:18.254Z,52
2017-09-07T04:45:27.098Z,60
2017-09-07T04:46:35.943Z,64
2017-09-07T04:47:44.939Z,72
2017-09-07T04:48:53.784Z,80
2017-09-07T04:50:02.627Z,88
2017-09-07T04:51:11.472Z,100
2017-09-07T04:52:20.317Z,108
2017-09-07T04:53:29.208Z,116
2017-09-07T04:54:38.054Z,132
2017-09-07T04:55:46.893Z,144
2017-09-07T04:56:55.739Z,152
2017-09-07T04:58:04.584Z,160
2017-09-07T04:59:13.478Z,176
2017-09-07T05:00:22.324Z,196
2017-09-07T05:01:31.192Z,208
2017-09-07T05:02:40.038Z,220
2017-09-07T05:03:48.887Z,236
2017-09-07T05:04:57.886Z,248
2017-09-07T05:06:07.062Z,260
2017-09-07T05:07:15.907Z,280
2017-09-07T05:08:24.753Z,304
2017-09-07T05:09:33.597Z,320
2017-09-07T05:10:42.495Z,340
2017-09-07T05:11:51.344Z,352
2017-09-07T05:13:00.191Z,360
2017-09-07T05:14:09.067Z,368
2017-09-07T05:15:17.912Z,408
2017-09-07T05:16:26.806Z,420
2017-09-07T05:17:35.652Z,424
2017-09-07T05:18:44.498Z,452
2017-09-07T05:19:53.343Z,452
2017-09-07T05:21:02.189Z,508
2017-09-07T05:22:11.187Z,528
2017-09-07T05:23:20.039Z,560
2017-09-07T05:24:28.886Z,564
2017-09-07T05:25:37.732Z,588
2017-09-07T05:26:46.578Z,612
2017-09-07T05:27:55.724Z,608
2017-09-07T05:29:04.568Z,604
2017-09-07T05:30:13.415Z,640
2017-09-07T05:31:22.258Z,680
2017-09-07T05:32:31.107Z,704
2017-09-07T05:33:40.098Z,712
2017-09-07T05:34:48.944Z,752
2017-09-07T05:35:57.791Z,776
2017-09-07T05:37:06.640Z,768
2017-09-07T05:38:15.487Z,796
2017-09-07T05:39:24.436Z,788
2017-09-07T05:40:33.617Z,852
2017-09-07T05:41:42.465Z,844
2017-09-07T05:42:51.311Z,900
2017-09-07T05:44:00.157Z,856
2017-09-07T05:45:09.104Z,848
2017-09-07T05:46:17.950Z,904
2017-09-07T05:47:26.798Z,872
2017-09-07T05:48:35.644Z,916
2017-09-07T05:49:44.489Z,952
2017-09-07T05:50:53.635Z,1028
2017-09-07T05:52:02.481Z,1048
2017-09-07T05:53:11.327Z,1080
2017-09-07T05:54:20.172Z,1112
2017-09-07T05:55:29.018Z,1080
2017-09-07T05:56:38.015Z,1088
2017-09-07T05:57:46.861Z,1076
2017-09-07T05:58:55.705Z,1148
2017-09-07T06:00:04.552Z,1160
2017-09-07T06:01:13.400Z,1144
2017-09-07T06:02:22.396Z,1128
2017-09-07T06:03:31.240Z,1188
2017-09-07T06:04:40.086Z,1252
2017-09-07T06:05:48.934Z,1192
2017-09-07T06:06:57.783Z,1256
2017-09-07T06:08:06.678Z,1284
2017-09-07T06:09:15.525Z,1248
2017-09-07T06:10:24.713Z,1256
2017-09-07T06:11:33.560Z,1260
2017-09-07T06:12:42.406Z,1392
2017-09-07T06:13:51.353Z,1380
2017-09-07T06:15:00.202Z,1364
2017-09-07T06:16:09.054Z,1396
2017-09-07T06:17:17.893Z,1356
2017-09-07T06:18:26.740Z,1300
2017-09-07T06:19:35.635Z,1120
2017-09-07T06:20:44.482Z,1140
2017-09-07T06:21:53.326Z,1136
2017-09-07T06:23:02.173Z,1208
2017-09-07T06:24:11.019Z,1300
2017-09-07T06:25:20.097Z,1300
2017-09-07T06:26:28.942Z,1240
2017-09-07T06:27:37.787Z,1308
2017-09-07T06:28:46.634Z,1356
2017-09-07T06:29:55.479Z,1292
2017-09-07T06:31:04.476Z,1268
2017-09-07T06:32:13.320Z,1304
2017-09-07T06:33:22.165Z,1296
2017-09-07T06:34:31.017Z,1296
2017-09-07T06:35:39.863Z,1512
2017-09-07T06:36:48.911Z,1648
2017-09-07T06:37:57.756Z,1772
2017-09-07T06:39:06.605Z,2028
2017-09-07T06:40:15.453Z,1876
2017-09-07T06:41:24.633Z,1632
2017-09-07T06:42:33.732Z,1624
2017-09-07T06:43:42.580Z,1588
2017-09-07T06:44:51.427Z,1356
2017-09-07T06:46:00.272Z,1344
2017-09-07T06:47:09.117Z,1752
2017-09-07T06:48:18.115Z,1772
2017-09-07T06:49:26.962Z,1812
2017-09-07T06:50:35.810Z,1940
2017-09-07T06:51:44.657Z,1800
2017-09-07T06:52:53.505Z,1588
2017-09-07T06:54:02.501Z,1472
2017-09-07T06:55:11.347Z,1540
2017-09-07T06:56:20.197Z,1804
2017-09-07T06:57:31.588Z,2364
2017-09-07T06:58:40.436Z,2732
2017-09-07T06:59:49.336Z,2332
2017-09-07T07:00:58.181Z,2116
2017-09-07T07:02:07.028Z,2432
2017-09-07T07:03:15.874Z,2244
2017-09-07T07:04:24.722Z,2460
2017-09-07T07:05:33.971Z,2056
2017-09-07T07:06:42.918Z,1716
2017-09-07T07:07:51.766Z,1784
2017-09-07T07:09:00.615Z,1944
2017-09-07T07:10:09.463Z,1896
2017-09-07T07:11:18.411Z,1656
2017-09-07T07:12:27.256Z,1412
2017-09-07T07:13:36.100Z,1572
2017-09-07T07:14:44.946Z,1660
2017-09-07T07:15:53.794Z,1956
2017-09-07T07:17:02.790Z,2168
2017-09-07T07:18:11.632Z,2412
2017-09-07T07:19:20.476Z,2684
2017-09-07T07:20:29.322Z,2828
2017-09-07T07:21:38.165Z,2872
2017-09-07T07:22:47.060Z,2956
2017-09-07T07:23:55.902Z,2960
2017-09-07T07:25:04.746Z,2792
2017-09-07T07:26:13.589Z,2736
2017-09-07T07:27:22.434Z,2808
2017-09-07T07:28:31.330Z,3044
2017-09-07T07:29:40.175Z,3032
2017-09-07T07:30:49.020Z,2856
2017-09-07T07:31:57.864Z,2388
2017-09-07T07:33:06.707Z,2100
2017-09-07T07:34:15.605Z,2300
2017-09-07T07:35:24.447Z,2868
2017-09-07T07:36:33.292Z,3704
2017-09-07T07:37:42.143Z,3804
2017-09-07T07:38:50.989Z,3652
2017-09-07T07:40:00.031Z,3456
2017-09-07T07:41:08.882Z,3316
2017-09-07T07:42:18.055Z,2928
2017-09-07T07:43:26.902Z,2924
2017-09-07T07:44:35.748Z,3372
2017-09-07T07:45:44.642Z,3884
2017-09-07T07:46:53.487Z,4400
2017-09-07T07:48:02.333Z,4440
2017-09-07T07:49:11.176Z,4112
2017-09-07T07:50:20.022Z,4096
2017-09-07T07:51:28.920Z,4164
2017-09-07T07:52:38.099Z,4108
2017-09-07T07:53:46.943Z,3824
2017-09-07T07:54:55.789Z,3736
2017-09-07T07:56:04.634Z,3744
2017-09-07T07:57:13.860Z,3644
2017-09-07T07:58:22.706Z,3752
2017-09-07T07:59:31.601Z,4092
2017-09-07T08:00:40.447Z,4524
2017-09-07T08:01:49.296Z,4540
2017-09-07T08:02:58.193Z,4272
2017-09-07T08:04:07.040Z,4092
2017-09-07T08:05:15.885Z,3900
2017-09-07T08:06:24.730Z,3604
2017-09-07T08:07:33.578Z,3424
2017-09-07T08:08:42.721Z,3384
2017-09-07T08:09:51.566Z,3436
2017-09-07T08:11:00.414Z,3136
2017-09-07T08:12:09.258Z,2764
2017-09-07T08:13:18.104Z,2320
2017-09-07T08:14:27.102Z,1960
2017-09-07T08:15:35.948Z,2012
2017-09-07T08:16:44.795Z,2212
2017-09-07T08:17:53.639Z,2300
2017-09-07T08:19:02.484Z,2496
2017-09-07T08:20:11.479Z,2292
2017-09-07T08:21:20.326Z,2236
2017-09-07T08:22:29.172Z,2132
2017-09-07T08:23:38.018Z,2104
2017-09-07T08:24:47.196Z,2108
2017-09-07T08:25:56.343Z,2372
2017-09-07T08:27:05.192Z,2300
2017-09-07T08:28:14.036Z,2344
2017-09-07T08:29:22.886Z,2508
2017-09-07T08:30:31.734Z,2380
2017-09-07T08:31:40.735Z,2716
2017-09-07T08:32:49.573Z,3228
2017-09-07T08:33:58.419Z,3896
2017-09-07T08:35:07.264Z,3908
2017-09-07T08:36:16.108Z,4180
2017-09-07T08:37:25.103Z,4476
2017-09-07T08:38:33.953Z,4284
2017-09-07T08:39:42.791Z,4444
2017-09-07T08:40:51.635Z,4376
2017-09-07T08:42:00.483Z,4388
2017-09-07T08:43:09.480Z,4756
2017-09-07T08:44:18.322Z,4484
2017-09-07T08:45:27.168Z,4552
2017-09-07T08:46:36.014Z,4388
2017-09-07T08:47:44.860Z,4412
2017-09-07T08:48:53.807Z,4960
2017-09-07T08:50:02.655Z,5584
2017-09-07T08:51:11.502Z,6280
2017-09-07T08:52:20.347Z,6360
2017-09-07T08:53:29.193Z,5696
2017-09-07T08:54:38.141Z,5952
2017-09-07T08:55:46.994Z,5632
2017-09-07T08:56:55.842Z,5588
2017-09-07T08:58:04.687Z,5776
2017-09-07T08:59:13.569Z,4960
2017-09-07T09:00:22.431Z,4316
2017-09-07T09:01:31.278Z,3800
2017-09-07T09:02:40.458Z,3196
2017-09-07T09:03:49.305Z,3036
2017-09-07T09:04:58.150Z,3444
2017-09-07T09:06:07.145Z,4144
2017-09-07T09:07:16.327Z,4640
2017-09-07T09:08:25.174Z,4568
2017-09-07T09:09:34.020Z,5072
2017-09-07T09:10:42.867Z,5444
2017-09-07T09:11:51.815Z,5332
2017-09-07T09:13:00.661Z,5768
2017-09-07T09:14:09.507Z,5932
2017-09-07T09:15:18.353Z,6232
2017-09-07T09:16:27.201Z,6552
2017-09-07T09:17:36.254Z,6924
2017-09-07T09:18:45.103Z,7224
2017-09-07T09:19:54.290Z,6972
2017-09-07T09:21:03.468Z,6560
2017-09-07T09:22:12.315Z,6316
2017-09-07T09:23:21.311Z,6468
2017-09-07T09:24:30.160Z,6404
2017-09-07T09:25:39.004Z,6496
2017-09-07T09:26:47.853Z,6808
2017-09-07T09:27:56.695Z,6780
2017-09-07T09:29:05.591Z,6612
2017-09-07T09:30:14.441Z,6584
2017-09-07T09:31:23.290Z,6668
2017-09-07T09:32:32.139Z,6712
2017-09-07T09:33:40.988Z,6508
2017-09-07T09:34:50.036Z,5900
2017-09-07T09:35:58.885Z,5484
2017-09-07T09:37:07.729Z,4972
2017-09-07T09:38:16.576Z,5308
2017-09-07T09:39:25.423Z,5824
2017-09-07T09:40:34.474Z,6040
2017-09-07T09:41:43.325Z,6636
2017-09-07T09:42:52.173Z,7952
2017-09-07T09:44:01.019Z,7584
2017-09-07T09:45:10.198Z,6588
2017-09-07T09:46:19.196Z,5848
2017-09-07T09:47:28.047Z,4904
2017-09-07T09:48:36.897Z,5564
2017-09-07T09:49:45.744Z,5528
2017-09-07T09:50:54.592Z,4684
2017-09-07T09:52:03.590Z,5804
2017-09-07T09:53:12.440Z,5628
2017-09-07T09:54:21.286Z,5240
2017-09-07T09:55:30.135Z,5988
2017-09-07T09:56:38.980Z,6696
2017-09-07T09:57:47.823Z,6928
2017-09-07T09:58:56.675Z,6988
2017-09-07T10:00:06.189Z,7372
2017-09-07T10:01:15.036Z,7452
2017-09-07T10:02:23.881Z,7316
2017-09-07T10:03:32.930Z,7380
2017-09-07T10:04:41.773Z,7592
2017-09-07T10:05:50.623Z,7532
2017-09-07T10:06:59.473Z,7092
2017-09-07T10:08:08.320Z,7188
2017-09-07T10:09:17.272Z,7280
2017-09-07T10:10:26.115Z,7424
2017-09-07T10:11:34.962Z,6648
2017-09-07T10:12:43.810Z,5272
2017-09-07T10:13:52.658Z,4832
2017-09-07T10:15:01.707Z,6232
2017-09-07T10:16:10.554Z,5320
2017-09-07T10:17:19.405Z,5204
2017-09-07T10:18:28.254Z,4688
2017-09-07T10:19:37.102Z,6560
2017-09-07T10:20:46.051Z,5996
2017-09-07T10:21:54.898Z,6380
2017-09-07T10:23:03.747Z,6160
2017-09-07T10:24:12.924Z,7028
2017-09-07T10:25:21.771Z,6604
2017-09-07T10:26:30.668Z,7080
2017-09-07T10:27:39.517Z,8776
2017-09-07T10:28:48.406Z,7592
2017-09-07T10:29:57.215Z,4116
2017-09-07T10:31:06.064Z,2516
2017-09-07T10:32:15.015Z,1788
2017-09-07T10:33:23.863Z,1576
2017-09-07T10:34:32.713Z,1496
2017-09-07T10:35:41.561Z,1464
2017-09-07T10:36:50.408Z,1376
2017-09-07T10:37:59.407Z,1316
2017-09-07T10:39:08.256Z,1388
2017-09-07T10:40:17.103Z,1416
2017-09-07T10:41:26.291Z,1484
2017-09-07T10:42:35.136Z,1484
2017-09-07T10:43:44.232Z,1376
2017-09-07T10:44:53.081Z,1476
2017-09-07T10:46:01.927Z,1796
2017-09-07T10:47:10.773Z,2596
2017-09-07T10:48:19.622Z,3400
2017-09-07T10:49:28.568Z,4204
2017-09-07T10:50:37.413Z,5104
2017-09-07T10:51:46.260Z,5632
2017-09-07T10:52:55.106Z,6168
2017-09-07T10:54:03.956Z,7416
2017-09-07T10:55:12.953Z,8876
2017-09-07T10:56:21.800Z,9140
2017-09-07T10:57:30.646Z,9332
2017-09-07T10:58:39.494Z,9764
2017-09-07T10:59:48.345Z,10360
2017-09-07T11:00:57.591Z,10588
2017-09-07T11:02:06.775Z,10412
2017-09-07T11:03:15.624Z,10016
2017-09-07T11:04:24.474Z,9636
2017-09-07T11:05:33.324Z,10080
2017-09-07T11:06:42.803Z,11144
2017-09-07T11:07:51.653Z,11440
2017-09-07T11:09:00.499Z,11184
2017-09-07T11:10:09.346Z,10756
2017-09-07T11:11:18.193Z,9864
2017-09-07T11:12:27.091Z,10580
2017-09-07T11:13:35.944Z,9720
2017-09-07T11:14:44.792Z,10228
2017-09-07T11:15:53.641Z,10104
2017-09-07T11:17:02.492Z,10904
2017-09-07T11:18:11.637Z,11532
2017-09-07T11:19:20.488Z,11788
2017-09-07T11:20:29.337Z,11256
2017-09-07T11:21:38.190Z,10960
2017-09-07T11:22:47.041Z,10928
2017-09-07T11:23:55.939Z,11316
2017-09-07T11:25:04.791Z,11500
2017-09-07T11:26:13.640Z,11576
2017-09-07T11:27:22.492Z,11676
2017-09-07T11:28:31.342Z,12652
2017-09-07T11:29:40.241Z,12580
2017-09-07T11:30:49.090Z,12532
2017-09-07T11:31:58.275Z,12032
2017-09-07T11:33:07.128Z,10288
2017-09-07T11:34:16.310Z,8004
2017-09-07T11:35:25.501Z,5628
2017-09-07T11:36:34.351Z,5132
2017-09-07T11:37:43.201Z,4944
2017-09-07T11:38:52.053Z,3516
2017-09-07T11:40:00.915Z,2896
2017-09-07T11:41:10.095Z,3052
2017-09-07T11:42:18.946Z,3280
2017-09-07T11:43:27.795Z,3572
2017-09-07T11:44:36.645Z,3356
2017-09-07T11:45:45.493Z,3000
2017-09-07T11:46:54.346Z,2864
2017-09-07T11:48:03.190Z,2712
2017-09-07T11:49:12.041Z,2528
2017-09-07T11:50:20.890Z,2608
2017-09-07T11:51:29.746Z,2816
2017-09-07T11:52:38.592Z,2968
2017-09-07T11:53:47.442Z,2996
2017-09-07T11:54:56.294Z,2928
2017-09-07T11:56:05.141Z,2864
2017-09-07T11:57:13.991Z,2876
2017-09-07T11:58:22.839Z,3004
2017-09-07T11:59:31.811Z,3440
2017-09-07T12:00:40.660Z,4004
2017-09-07T12:01:49.508Z,4332
2017-09-07T12:02:58.356Z,4584
2017-09-07T12:04:07.206Z,4748
2017-09-07T12:05:16.054Z,5200
2017-09-07T12:06:24.904Z,5488
2017-09-07T12:07:33.757Z,5424
2017-09-07T12:08:42.605Z,5376
2017-09-07T12:09:51.454Z,5520
2017-09-07T12:11:00.304Z,5572
2017-09-07T12:12:09.350Z,5508
2017-09-07T12:13:18.200Z,5664
2017-09-07T12:14:27.050Z,5844
2017-09-07T12:15:35.900Z,6240
2017-09-07T12:16:44.750Z,6692
2017-09-07T12:17:54.005Z,6992
2017-09-07T12:19:02.947Z,7260
2017-09-07T12:20:12.129Z,7468
2017-09-07T12:21:20.977Z,7652
2017-09-07T12:22:29.826Z,7952
2017-09-07T12:23:38.777Z,7800
2017-09-07T12:24:47.627Z,7428
2017-09-07T12:25:56.475Z,6872
2017-09-07T12:27:05.323Z,6632
2017-09-07T12:28:14.169Z,6544
2017-09-07T12:29:23.651Z,6256
2017-09-07T12:30:32.498Z,5620
2017-09-07T12:31:41.345Z,5168
2017-09-07T12:32:50.193Z,5232
2017-09-07T12:33:59.039Z,5560
2017-09-07T12:35:08.036Z,5972
2017-09-07T12:36:16.886Z,6304
2017-09-07T12:37:26.081Z,6648
2017-09-07T12:38:34.931Z,6896
2017-09-07T12:39:44.108Z,6644
2017-09-07T12:40:52.959Z,6864
2017-09-07T12:42:01.807Z,7400
2017-09-07T12:43:10.657Z,8160
2017-09-07T12:44:19.504Z,8940
2017-09-07T12:45:28.351Z,8980
2017-09-07T12:46:37.401Z,9004
2017-09-07T12:47:46.250Z,9852
2017-09-07T12:48:55.097Z,11440
2017-09-07T12:50:04.277Z,11824
2017-09-07T12:51:13.126Z,11312
2017-09-07T12:52:22.225Z,10136
2017-09-07T12:53:31.073Z,9224
2017-09-07T12:54:39.919Z,8824
2017-09-07T12:55:48.768Z,9304
2017-09-07T12:56:57.619Z,8408
2017-09-07T12:58:06.521Z,7348
2017-09-07T12:59:15.371Z,7104
2017-09-07T13:00:24.219Z,5944
2017-09-07T13:01:33.070Z,4996
2017-09-07T13:02:41.920Z,5012
2017-09-07T13:03:50.919Z,5628
2017-09-07T13:04:59.769Z,6036
2017-09-07T13:06:08.618Z,6172
2017-09-07T13:07:17.467Z,4444
2017-09-07T13:08:26.319Z,3060
2017-09-07T13:09:35.216Z,1812
2017-09-07T13:10:44.062Z,1260
2017-09-07T13:11:52.912Z,940
2017-09-07T13:13:01.759Z,836
2017-09-07T13:14:10.612Z,704
2017-09-07T13:15:19.610Z,516
2017-09-07T13:16:28.459Z,436
2017-09-07T13:17:37.305Z,400
2017-09-07T13:18:46.154Z,392
2017-09-07T13:19:55.004Z,448
2017-09-07T13:21:03.926Z,524
2017-09-07T13:22:13.105Z,592
2017-09-07T13:23:21.952Z,552
2017-09-07T13:24:30.802Z,632
2017-09-07T13:25:39.648Z,688
2017-09-07T13:26:48.646Z,740
2017-09-07T13:27:57.493Z,760
2017-09-07T13:29:06.343Z,796
2017-09-07T13:30:15.194Z,740
2017-09-07T13:31:24.374Z,648
2017-09-07T13:32:33.273Z,636
2017-09-07T13:33:42.119Z,700
2017-09-07T13:34:50.969Z,804
2017-09-07T13:35:59.816Z,948
2017-09-07T13:37:08.687Z,1208
2017-09-07T13:38:17.936Z,1400
2017-09-07T13:39:26.783Z,1616
2017-09-07T13:40:35.634Z,1832
2017-09-07T13:41:44.704Z,2016
2017-09-07T13:42:53.624Z,2236
2017-09-07T13:44:02.523Z,2436
2017-09-07T13:45:11.399Z,2700
2017-09-07T13:46:20.220Z,3128
2017-09-07T13:47:29.065Z,3484
2017-09-07T13:48:37.911Z,3892
2017-09-07T13:49:47.055Z,4188
2017-09-07T13:50:55.902Z,4296
2017-09-07T13:52:04.748Z,4712
2017-09-07T13:53:13.595Z,5116
2017-09-07T13:54:22.438Z,5712
2017-09-07T13:55:31.335Z,6192
2017-09-07T13:56:40.182Z,6884
2017-09-07T13:57:49.031Z,7576
2017-09-07T13:58:57.876Z,8264
2017-09-07T14:00:06.721Z,8168
2017-09-07T14:01:15.569Z,8088
2017-09-07T14:02:24.421Z,9800
2017-09-07T14:03:33.267Z,33984
2017-09-07T14:04:42.126Z,13952
2017-09-07T14:05:50.973Z,15024
2017-09-07T14:06:59.869Z,11608
2017-09-07T14:08:08.891Z,12044
2017-09-07T14:09:18.074Z,15144
2017-09-07T14:10:26.922Z,11780
2017-09-07T14:11:35.770Z,11420
2017-09-07T14:12:44.721Z,11572
2017-09-07T14:13:53.570Z,12012
2017-09-07T14:15:02.423Z,11336
2017-09-07T14:16:11.272Z,10252
2017-09-07T14:17:20.125Z,9104
2017-09-07T14:18:29.081Z,8156
2017-09-07T14:19:37.950Z,8228
2017-09-07T14:20:46.809Z,9508
2017-09-07T14:21:55.667Z,9980
2017-09-07T14:23:04.523Z,9384
2017-09-07T14:24:13.523Z,9372
2017-09-07T14:25:22.371Z,8688
2017-09-07T14:26:31.219Z,8028
2017-09-07T14:27:40.065Z,7688
2017-09-07T14:28:48.928Z,7840
2017-09-07T14:29:57.926Z,7816
2017-09-07T14:31:06.778Z,7564
2017-09-07T14:32:15.623Z,8280
2017-09-07T14:33:24.471Z,8268
2017-09-07T14:34:33.320Z,7764
2017-09-07T14:35:42.339Z,6616
2017-09-07T14:36:51.189Z,5648
2017-09-07T14:38:00.038Z,4820
2017-09-07T14:39:08.911Z,4204
2017-09-07T14:40:17.759Z,3724
2017-09-07T14:41:26.660Z,3452
2017-09-07T14:42:35.509Z,3356
2017-09-07T14:43:44.360Z,3392
2017-09-07T14:44:53.231Z,3288
2017-09-07T14:46:02.088Z,3048
2017-09-07T14:47:11.532Z,2908
2017-09-07T14:48:20.384Z,3016
2017-09-07T14:49:29.239Z,3124
2017-09-07T14:50:38.092Z,3088
2017-09-07T14:51:46.941Z,3380
2017-09-07T14:52:56.088Z,3620
2017-09-07T14:54:04.938Z,3792
2017-09-07T14:55:14.143Z,4188
2017-09-07T14:56:22.997Z,4464
2017-09-07T14:57:31.845Z,4028
2017-09-07T14:58:40.696Z,3940
2017-09-07T14:59:49.545Z,3772
2017-09-07T15:00:58.394Z,3740
2017-09-07T15:02:07.244Z,3340
2017-09-07T15:03:16.095Z,2712
2017-09-07T15:04:24.994Z,2064
2017-09-07T15:05:33.843Z,1660
2017-09-07T15:06:42.695Z,1412
2017-09-07T15:07:51.540Z,1556
2017-09-07T15:09:00.720Z,1888
2017-09-07T15:10:09.867Z,2204
2017-09-07T15:11:19.049Z,2368
2017-09-07T15:12:27.903Z,2852
2017-09-07T15:13:36.750Z,17984
2017-09-07T15:14:45.597Z,3852
2017-09-07T15:15:54.930Z,4908
2017-09-07T15:17:03.777Z,5124
2017-09-07T15:18:12.623Z,5216
2017-09-07T15:19:21.472Z,5736
2017-09-07T15:20:30.323Z,6268
2017-09-07T15:21:39.171Z,6444
2017-09-07T15:22:48.371Z,8976
2017-09-07T15:23:57.219Z,8416
2017-09-07T15:25:06.067Z,7948
2017-09-07T15:26:15.260Z,38432
2017-09-07T15:27:24.509Z,37920
2017-09-07T15:28:33.356Z,28992
2017-09-07T15:29:42.208Z,32768
2017-09-07T15:30:51.387Z,32672
2017-09-07T15:32:00.239Z,18368
2017-09-07T15:33:09.089Z,33600
2017-09-07T15:34:17.942Z,6380
2017-09-07T15:35:26.795Z,5524
2017-09-07T15:36:35.646Z,15200
2017-09-07T15:37:44.498Z,8316
2017-09-07T15:38:53.502Z,18688
2017-09-07T15:40:02.352Z,8864
2017-09-07T15:41:11.203Z,20704
2017-09-07T15:42:20.058Z,25504
2017-09-07T15:43:29.243Z,26048
2017-09-07T15:44:38.246Z,25792
2017-09-07T15:45:47.102Z,13328